Time;durP1;ratioP1;P1;durP2;ratioP2;P2;SDS_P1;SDS_P2;PMS_P1;PMS_P2;Temp;Humidity;BMP_temperature;BMP_pressure;BME280_temperature;BME280_humidity;BME280_pressure;Samples;Min_cycle;Max_cycle;Signal;HPM_P1;HPM_P2
2022/11/24 00:03:40;;;;;;;45.48;18.95;;;;;;;7.36;74.20;98169.20;4189751;83;28509;-78
2022/11/24 00:09:41;;;;;;;43.08;19.52;;;;;;;7.43;74.21;98170.95;4095980;85;28520;-79
2022/11/24 00:15:42;;;;;;;41.58;17.67;;;;;;;7.53;73.20;98177.34;4125307;84;28587;-80
2022/11/24 00:21:44;;;;;;;39.42;17.32;;;;;;;7.67;72.37;98177.13;4178752;83;28624;-80
2022/11/24 00:27:46;;;;;;;44.00;18.30;;;;;;;7.65;71.45;98183.21;4117719;85;28552;-80
2022/11/24 00:33:50;;;;;;;41.02;17.85;;;;;;;7.97;70.69;98185.55;4100530;85;28510;-80
2022/11/24 00:39:52;;;;;;;41.77;17.95;;;;;;;8.04;70.47;98196.13;4119676;85;28590;-79
2022/11/24 00:45:53;;;;;;;40.28;16.45;;;;;;;8.04;69.94;98207.63;4109532;84;28603;-79
2022/11/24 00:51:54;;;;;;;37.93;15.83;;;;;;;8.02;69.16;98203.55;4106602;85;28574;-79
2022/11/24 00:57:56;;;;;;;41.73;17.30;;;;;;;7.77;68.98;98198.77;4129197;85;28509;-79
2022/11/24 01:04:02;;;;;;;36.65;15.65;;;;;;;7.34;70.69;98205.23;4120968;85;28512;-79
2022/11/24 01:10:05;;;;;;;40.63;16.00;;;;;;;7.79;70.03;98202.02;4107350;85;28588;-80
2022/11/24 01:16:24;;;;;;;32.83;14.93;;;;;;;7.80;69.68;98207.66;4096735;85;28562;-77
2022/11/24 01:22:26;;;;;;;41.92;16.32;;;;;;;7.73;69.68;98206.16;4088319;85;28563;-80
2022/11/24 01:28:27;;;;;;;36.13;16.12;;;;;;;7.79;69.60;98215.91;4112195;84;28569;-80
2022/11/24 01:34:29;;;;;;;35.68;15.23;;;;;;;7.86;69.51;98217.95;4121172;84;28534;-80
2022/11/24 01:40:30;;;;;;;35.08;15.18;;;;;;;7.90;69.73;98220.44;4148322;84;28589;-80
2022/11/24 01:46:44;;;;;;;32.88;14.63;;;;;;;7.94;69.38;98217.60;4124434;84;28585;-79
2022/11/24 01:52:51;;;;;;;31.40;14.40;;;;;;;7.69;69.61;98221.85;4145360;84;28488;-79
2022/11/24 01:58:58;;;;;;;31.48;14.75;;;;;;;7.69;70.30;98228.54;4145657;84;28533;-79
2022/11/24 02:05:08;;;;;;;32.80;14.25;;;;;;;7.92;70.15;98237.61;4185455;83;28523;-79
2022/11/24 02:11:09;;;;;;;33.83;15.30;;;;;;;8.19;68.83;98245.97;4110734;85;28565;-76
2022/11/24 02:17:10;;;;;;;31.62;14.53;;;;;;;8.06;69.20;98248.36;4134262;84;28515;-77
2022/11/24 02:23:23;;;;;;;33.48;15.32;;;;;;;8.00;69.36;98252.50;4186834;83;28845;-77
2022/11/24 02:29:24;;;;;;;32.78;15.98;;;;;;;8.11;69.00;98243.64;4153196;84;28538;-77
2022/11/24 02:35:27;;;;;;;37.45;16.00;;;;;;;8.19;69.31;98254.00;4115180;85;28537;-78
2022/11/24 02:41:28;;;;;;;36.90;15.83;;;;;;;8.34;68.34;98245.48;4119464;85;28548;-79
2022/11/24 02:47:30;;;;;;;39.42;16.15;;;;;;;8.28;68.58;98254.47;4173076;84;28561;-78
2022/11/24 02:53:31;;;;;;;35.20;15.75;;;;;;;8.35;68.39;98253.80;4181224;84;28600;-81
2022/11/24 02:59:32;;;;;;;29.10;12.80;;;;;;;8.23;68.85;98259.19;4090952;86;28559;-82
2022/11/24 03:05:34;;;;;;;27.80;12.25;;;;;;;7.48;71.96;98264.67;4072069;85;28532;-82
2022/11/24 03:11:36;;;;;;;26.97;11.60;;;;;;;7.26;75.50;98259.86;4185836;84;28502;-82
2022/11/24 03:17:37;;;;;;;24.85;12.15;;;;;;;7.67;75.36;98263.55;4153873;84;28508;-82
2022/11/24 03:23:39;;;;;;;27.07;12.65;;;;;;;7.62;74.15;98265.28;4119546;85;28571;-82
2022/11/24 03:29:40;;;;;;;25.75;11.65;;;;;;;7.51;76.77;98262.90;4063777;86;28549;-83
2022/11/24 03:35:44;;;;;;;25.90;11.93;;;;;;;7.52;75.42;98265.33;4117884;84;28537;-81
2022/11/24 03:41:45;;;;;;;29.00;12.73;;;;;;;7.93;72.47;98267.34;4130977;84;28509;-84
2022/11/24 03:47:51;;;;;;;27.58;12.88;;;;;;;8.08;71.31;98265.53;4113219;86;28585;-83
2022/11/24 03:53:52;;;;;;;;;;;;;;;8.36;70.63;98268.81;4118921;86;28480;-83
2022/11/24 03:59:54;;;;;;;26.90;11.83;;;;;;;8.34;70.16;98280.30;4164319;84;20243;-83
2022/11/24 04:05:55;;;;;;;26.48;11.55;;;;;;;8.33;70.17;98286.70;4091567;86;28594;-82
2022/11/24 04:18:17;;;;;;;25.57;11.90;;;;;;;8.13;70.73;98284.92;4060860;85;28479;-82
2022/11/24 04:24:18;;;;;;;22.30;11.40;;;;;;;8.19;70.33;98286.13;4081452;86;28581;-82
2022/11/24 04:30:21;;;;;;;27.62;12.23;;;;;;;8.34;69.27;98293.69;4061949;86;28557;-83
2022/11/24 04:36:22;;;;;;;25.90;11.70;;;;;;;8.22;69.10;98296.37;4067080;86;28517;-82
2022/11/24 04:42:23;;;;;;;26.85;11.50;;;;;;;8.44;68.87;98297.64;4065757;86;28526;-81
2022/11/24 04:48:25;;;;;;;29.32;12.75;;;;;;;8.40;69.40;98306.66;4087088;86;28589;-84
2022/11/24 04:54:26;;;;;;;28.95;12.73;;;;;;;8.49;69.15;98315.17;4092289;86;28559;-83
2022/11/24 05:00:28;;;;;;;28.30;12.30;;;;;;;8.43;68.96;98315.56;4091701;86;28470;-83
2022/11/24 05:06:29;;;;;;;33.58;13.25;;;;;;;8.43;68.89;98316.10;4083558;85;28537;-84
2022/11/24 05:12:31;;;;;;;29.55;13.48;;;;;;;8.30;68.98;98325.19;4086956;86;28524;-82
2022/11/24 05:18:32;;;;;;;26.77;12.82;;;;;;;8.36;69.07;98325.06;4086722;86;28508;-80
2022/11/24 05:24:35;;;;;;;28.27;12.55;;;;;;;8.35;68.70;98324.78;4027123;87;28559;-83
2022/11/24 05:30:38;;;;;;;27.67;12.33;;;;;;;8.50;68.58;98331.03;4033929;87;28583;-83
2022/11/24 05:36:51;;;;;;;29.65;12.85;;;;;;;8.34;69.07;98331.73;4028550;88;28511;-83
2022/11/24 05:42:53;;;;;;;30.08;13.83;;;;;;;8.45;68.61;98338.11;4030182;87;28576;-87
2022/11/24 05:48:54;;;;;;;30.75;13.70;;;;;;;8.60;68.10;98343.84;4046148;86;28565;-85
2022/11/24 05:54:55;;;;;;;32.08;14.28;;;;;;;8.66;67.94;98346.11;4047756;86;28532;-83
2022/11/24 06:00:56;;;;;;;39.50;15.70;;;;;;;8.48;68.58;98357.72;4031440;87;28520;-82
2022/11/24 06:06:58;;;;;;;32.67;14.25;;;;;;;8.50;68.69;98365.02;4022370;86;28529;-81
2022/11/24 06:13:05;;;;;;;41.13;16.62;;;;;;;8.48;68.53;98375.97;4009600;87;28512;-84
2022/11/24 06:19:09;;;;;;;44.13;19.17;;;;;;;8.58;68.30;98373.26;4029764;86;28482;-84
2022/11/24 06:25:10;;;;;;;43.92;18.87;;;;;;;8.48;68.22;98382.66;4029048;86;28513;-86
2022/11/24 06:31:11;;;;;;;41.65;17.50;;;;;;;8.51;68.27;98386.78;4070401;85;28560;-84
2022/11/24 06:37:13;;;;;;;43.02;17.90;;;;;;;8.50;68.01;98389.97;4027775;86;28547;-82
2022/11/24 06:43:15;;;;;;;47.53;19.87;;;;;;;8.56;68.44;98395.45;4034818;86;28610;-82
2022/11/24 06:49:16;;;;;;;51.70;21.65;;;;;;;8.57;68.09;98400.56;4075579;85;28539;-82
2022/11/24 06:55:18;;;;;;;51.15;20.57;;;;;;;8.68;67.78;98404.81;4062227;85;28542;-82
2022/11/24 07:01:23;;;;;;;55.50;22.30;;;;;;;8.39;68.29;98406.03;4082861;85;28531;-81
2022/11/24 07:07:24;;;;;;;60.03;21.50;;;;;;;8.30;69.10;98413.57;4091080;85;28572;-81
2022/11/24 07:13:26;;;;;;;47.90;20.95;;;;;;;8.37;69.86;98417.77;4079151;86;37829;-81
2022/11/24 07:19:27;;;;;;;56.00;20.92;;;;;;;8.48;70.73;98428.20;4041404;86;28624;-81
2022/11/24 07:25:28;;;;;;;51.30;20.10;;;;;;;8.53;72.82;98425.38;4109913;84;28517;-81
2022/11/24 07:31:30;;;;;;;46.50;19.75;;;;;;;8.52;72.91;98429.94;4116733;84;28596;-81
2022/11/24 07:37:32;;;;;;;47.95;19.55;;;;;;;8.79;71.54;98438.31;4176231;83;28571;-82
2022/11/24 07:43:36;;;;;;;48.38;19.05;;;;;;;8.69;71.83;98434.58;4163256;83;28621;-82
2022/11/24 07:49:38;;;;;;;47.93;17.60;;;;;;;8.79;72.28;98426.25;4181919;83;28567;-81
2022/11/24 07:55:39;;;;;;;51.65;19.35;;;;;;;8.55;74.57;98434.81;4119857;85;28639;-82
2022/11/24 08:01:40;;;;;;;52.08;20.27;;;;;;;8.73;74.03;98432.53;4122011;85;28516;-82
2022/11/24 08:07:44;;;;;;;55.43;19.67;;;;;;;8.73;72.90;98441.91;4104461;85;28540;-81
2022/11/24 08:13:45;;;;;;;51.68;18.73;;;;;;;8.87;72.24;98440.36;4143013;84;28622;-81
2022/11/24 08:19:49;;;;;;;48.35;17.42;;;;;;;8.91;71.89;98456.25;4245609;82;28502;-81
2022/11/24 08:25:55;;;;;;;45.40;18.20;;;;;;;8.93;72.75;98459.51;4130144;83;28510;-82
2022/11/24 08:31:56;;;;;;;42.88;17.67;;;;;;;8.83;73.40;98457.94;4129557;84;28591;-82
2022/11/24 08:37:58;;;;;;;43.87;18.25;;;;;;;8.65;73.24;98456.48;4105482;84;28528;-82
2022/11/24 08:44:00;;;;;;;44.65;18.50;;;;;;;8.79;72.17;98464.28;4087625;84;28542;-82
2022/11/24 08:50:01;;;;;;;50.65;20.45;;;;;;;9.16;71.03;98467.23;4137246;84;28469;-81
2022/11/24 08:56:04;;;;;;;45.40;18.92;;;;;;;9.12;70.42;98472.78;4161072;84;28554;-82
2022/11/24 09:02:12;;;;;;;43.68;17.90;;;;;;;9.24;69.95;98476.26;4132931;84;28551;-82
2022/11/24 09:08:14;;;;;;;43.55;18.87;;;;;;;9.14;69.96;98476.04;4132660;85;28554;-81
2022/11/24 09:14:17;;;;;;;40.52;18.45;;;;;;;9.10;69.99;98481.59;4136679;85;28547;-81
2022/11/24 09:20:18;;;;;;;42.67;17.75;;;;;;;9.33;69.66;98478.06;4148546;84;28508;-81
2022/11/24 09:26:33;;;;;;;37.93;16.70;;;;;;;9.17;69.57;98484.98;4122809;84;28556;-81
2022/11/24 09:32:36;;;;;;;40.67;17.48;;;;;;;9.36;68.95;98478.92;4103569;85;28552;-82
2022/11/24 09:38:39;;;;;;;37.40;17.02;;;;;;;9.15;69.56;98482.52;4091529;83;28598;-81
2022/11/24 09:45:09;;;;;;;39.67;17.98;;;;;;;9.32;69.01;98481.77;4109477;85;28550;-82
2022/11/24 09:51:14;;;;;;;37.78;16.95;;;;;;;9.20;69.13;98488.52;4104555;85;28588;-82
2022/11/24 09:57:18;;;;;;;41.33;18.48;;;;;;;8.98;69.85;98485.62;4106571;85;28597;-81
2022/11/24 10:03:42;;;;;;;38.00;17.20;;;;;;;9.11;69.33;98487.25;4107526;85;28598;-81
2022/11/24 10:10:07;;;;;;;35.80;17.57;;;;;;;9.05;69.69;98486.32;4107561;85;28514;-82
2022/11/24 10:16:23;;;;;;;37.20;18.73;;;;;;;9.22;68.90;98487.75;4112375;85;28475;-81
2022/11/24 10:22:51;;;;;;;41.02;18.50;;;;;;;9.30;68.78;98485.22;4121173;85;28573;-82
2022/11/24 10:28:55;;;;;;;42.10;19.42;;;;;;;9.01;69.75;98489.20;4102973;85;28558;-80
2022/11/24 10:35:01;;;;;;;42.48;19.37;;;;;;;9.16;69.57;98485.48;4111339;85;28562;-82
2022/11/24 10:41:17;;;;;;;45.08;20.57;;;;;;;9.42;68.83;98481.98;4049006;85;28510;-81
2022/11/24 10:47:21;;;;;;;;;;;;;;;9.35;69.24;98480.78;4114076;84;28511;-82
2022/11/24 10:53:29;;;;;;;60.70;24.25;;;;;;;9.12;69.73;98488.36;4095367;84;20317;-81
2022/11/24 10:59:37;;;;;;;67.53;26.10;;;;;;;9.29;69.35;98488.96;4105825;85;28569;-82
2022/11/24 11:05:41;;;;;;;70.40;26.23;;;;;;;9.26;69.39;98494.81;4114180;85;28617;-82
2022/11/24 11:11:43;;;;;;;73.85;28.83;;;;;;;9.29;69.73;98482.25;4135907;83;28542;-81
2022/11/24 11:17:45;;;;;;;83.05;30.37;;;;;;;9.23;69.74;98492.61;4143550;84;28591;-81
2022/11/24 11:23:50;;;;;;;84.35;29.48;;;;;;;9.35;69.01;98492.05;4137126;83;28570;-81
2022/11/24 11:29:53;;;;;;;79.60;30.68;;;;;;;9.16;69.21;98486.83;4138132;84;28593;-82
2022/11/24 11:35:56;;;;;;;88.10;31.60;;;;;;;9.25;69.83;98491.84;4121416;84;28500;-82
2022/11/24 11:42:35;;;;;;;87.82;32.00;;;;;;;9.32;69.78;98483.11;4116772;84;28963;-82
2022/11/24 11:48:42;;;;;;;76.87;28.20;;;;;;;9.30;69.40;98490.08;4192441;83;28515;-82
2022/11/24 11:55:07;;;;;;;77.05;29.72;;;;;;;8.87;70.73;98502.02;4168141;83;28603;-81
2022/11/24 12:01:23;;;;;;;84.90;31.87;;;;;;;9.22;70.01;98495.80;4109243;85;28579;-82
2022/11/24 12:07:39;;;;;;;81.72;29.75;;;;;;;8.49;72.95;98492.00;4111800;84;28561;-81
2022/11/24 12:13:55;;;;;;;84.05;31.50;;;;;;;8.77;73.20;98491.34;4179994;83;28514;-81
2022/11/24 12:20:24;;;;;;;83.35;30.80;;;;;;;8.96;73.01;98493.91;4138570;84;28579;-81
2022/11/24 12:26:40;;;;;;;87.72;30.80;;;;;;;9.19;71.36;98494.39;4145613;83;28535;-83
2022/11/24 12:33:03;;;;;;;;;;;;;;;9.32;70.06;98504.58;4112751;85;28575;-81
2022/11/24 12:39:21;;;;;;;78.47;29.07;;;;;;;9.31;69.90;98502.95;4050642;86;20293;-81
2022/11/24 12:46:06;;;;;;;79.22;29.15;;;;;;;9.20;69.70;98496.02;4125444;84;28574;-80
2022/11/24 12:52:28;;;;;;;81.95;28.67;;;;;;;9.18;69.94;98505.38;4127138;84;28494;-82
2022/11/24 12:58:56;;;;;;;76.30;29.92;;;;;;;9.19;69.96;98512.38;4092821;84;28502;-82
2022/11/24 13:05:39;;;;;;;76.65;29.05;;;;;;;9.15;69.89;98517.39;4179045;83;28592;-81
2022/11/24 13:11:52;;;;;;;83.97;29.87;;;;;;;9.15;69.60;98516.55;4119005;85;28577;-82
2022/11/24 13:17:54;;;;;;;81.02;31.70;;;;;;;9.18;69.78;98529.52;4168646;83;28557;-82
2022/11/24 13:24:19;;;;;;;81.17;29.35;;;;;;;8.85;71.02;98526.36;4102904;85;28587;-81
2022/11/24 13:30:38;;;;;;;68.37;27.50;;;;;;;9.01;71.78;98530.21;4183683;84;28538;-82
2022/11/24 13:36:52;;;;;;;72.58;28.47;;;;;;;8.72;72.09;98538.11;4168815;84;28616;-81
2022/11/24 13:43:01;;;;;;;72.22;27.95;;;;;;;8.86;72.19;98545.95;4108036;85;28526;-82
2022/11/24 13:49:06;;;;;;;61.60;26.10;;;;;;;8.47;74.53;98555.69;4088965;85;28541;-81
2022/11/24 13:55:18;;;;;;;63.30;25.90;;;;;;;8.25;75.86;98555.41;4078715;85;28585;-82
2022/11/24 14:01:27;;;;;;;68.42;28.10;;;;;;;8.02;78.58;98571.64;4108173;85;28540;-81
2022/11/24 14:07:30;;;;;;;56.98;24.95;;;;;;;8.00;78.87;98579.92;4069595;85;28511;-82
2022/11/24 14:13:32;;;;;;;62.50;26.23;;;;;;;7.72;81.23;98596.53;4115289;84;28567;-80
2022/11/24 14:19:34;;;;;;;57.45;24.02;;;;;;;8.00;80.68;98597.33;4113171;85;28562;-81
2022/11/24 14:25:35;;;;;;;57.50;24.63;;;;;;;7.92;82.12;98604.31;4120664;85;28561;-82
2022/11/24 14:31:37;;;;;;;59.20;25.40;;;;;;;7.85;83.33;98619.13;4118435;85;28522;-81
2022/11/24 14:37:38;;;;;;;62.17;26.23;;;;;;;7.85;85.69;98629.83;4114380;85;28504;-82
2022/11/24 14:43:40;;;;;;;59.08;24.45;;;;;;;7.99;83.33;98637.19;4091531;85;28500;-81
2022/11/24 14:49:42;;;;;;;56.92;23.38;;;;;;;8.06;83.07;98635.23;4092571;85;28614;-82
2022/11/24 14:55:43;;;;;;;61.35;25.82;;;;;;;8.09;83.21;98636.64;4114854;84;28512;-82
2022/11/24 15:01:44;;;;;;;55.63;24.67;;;;;;;7.88;82.27;98645.43;4124550;85;28525;-81
2022/11/24 15:07:48;;;;;;;52.93;23.87;;;;;;;8.02;83.00;98655.47;4113316;85;28549;-81
2022/11/24 15:13:53;;;;;;;48.52;22.48;;;;;;;7.86;82.90;98668.93;4109488;85;28530;-81
2022/11/24 15:20:08;;;;;;;42.93;20.83;;;;;;;7.07;87.85;98679.59;4112179;85;28525;-84
2022/11/24 15:26:18;;;;;;;38.65;17.65;;;;;;;7.23;87.54;98680.91;4092541;85;28652;-82
2022/11/24 15:32:21;;;;;;;23.67;12.10;;;;;;;7.64;85.76;98696.63;4014328;87;28480;-83
2022/11/24 15:38:23;;;;;;;17.35;8.93;;;;;;;6.97;85.23;98698.80;4022954;87;28570;-82
2022/11/24 15:44:24;;;;;;;17.00;9.30;;;;;;;6.63;86.68;98718.73;4031582;87;28575;-82
2022/11/24 15:50:25;;;;;;;17.87;9.78;;;;;;;6.58;85.93;98715.36;4024970;87;28585;-81
2022/11/24 15:56:33;;;;;;;17.05;8.80;;;;;;;7.02;83.09;98719.54;4163104;84;28545;-80
2022/11/24 16:02:34;;;;;;;17.40;9.50;;;;;;;6.55;85.18;98732.62;4157417;84;28470;-84
2022/11/24 16:08:36;;;;;;;18.40;9.50;;;;;;;6.99;84.26;98725.33;4112143;86;28517;-83
2022/11/24 16:14:37;;;;;;;16.50;9.28;;;;;;;6.62;84.20;98726.44;4151382;84;28542;-84
2022/11/24 16:20:39;;;;;;;17.40;9.50;;;;;;;6.56;85.81;98741.47;4162795;84;28536;-85
2022/11/24 16:26:40;;;;;;;16.70;9.58;;;;;;;6.59;85.77;98741.03;4158434;84;28599;-85
2022/11/24 16:32:42;;;;;;;17.45;8.95;;;;;;;7.25;83.54;98738.20;4110304;85;28505;-85
2022/11/24 16:38:43;;;;;;;16.40;9.25;;;;;;;7.06;83.65;98742.66;4114970;85;28557;-86
2022/11/24 16:44:45;;;;;;;13.93;8.80;;;;;;;7.19;83.61;98747.91;4117267;85;28546;-85
2022/11/24 16:50:46;;;;;;;16.42;9.60;;;;;;;6.92;83.47;98751.27;4087495;85;28502;-87
2022/11/24 16:56:49;;;;;;;17.02;9.30;;;;;;;7.35;83.54;98748.43;4087261;85;28524;-87
2022/11/24 17:02:51;;;;;;;18.20;9.58;;;;;;;7.45;81.95;98753.28;4113751;85;28547;-86
2022/11/24 17:08:54;;;;;;;16.55;8.88;;;;;;;7.13;82.48;98762.66;4114567;85;28532;-86
2022/11/24 17:14:56;;;;;;;19.48;9.15;;;;;;;7.45;81.29;98770.67;4164918;83;28549;-87
2022/11/24 17:20:58;;;;;;;15.40;8.85;;;;;;;7.83;78.87;98768.92;4105075;86;28493;-86
2022/11/24 17:27:00;;;;;;;18.55;10.45;;;;;;;7.89;78.89;98781.44;4095539;86;28565;-85
2022/11/24 17:33:01;;;;;;;18.95;10.25;;;;;;;8.08;76.44;98785.79;4039091;86;28580;-85
2022/11/24 17:39:05;;;;;;;17.77;10.05;;;;;;;8.03;76.03;98787.49;4057210;86;28560;-83
2022/11/24 17:45:08;;;;;;;21.30;11.10;;;;;;;8.02;75.86;98796.54;4056069;86;28648;-85
2022/11/24 17:51:13;;;;;;;23.98;12.50;;;;;;;8.04;77.07;98799.84;4064242;86;28550;-84
2022/11/24 17:57:15;;;;;;;29.13;15.53;;;;;;;8.17;77.71;98798.87;4051561;86;28525;-86
2022/11/24 18:03:16;;;;;;;32.48;16.07;;;;;;;7.86;78.23;98808.12;4044808;86;28536;-85
2022/11/24 18:09:21;;;;;;;29.30;15.93;;;;;;;8.18;78.57;98823.30;4060997;86;28543;-84
2022/11/24 18:15:22;;;;;;;30.37;16.90;;;;;;;8.11;79.37;98820.66;4056790;86;28509;-85
2022/11/24 18:21:24;;;;;;;30.75;16.75;;;;;;;8.16;79.00;98829.38;4050195;86;28536;-86
2022/11/24 18:27:26;;;;;;;31.27;16.55;;;;;;;8.26;78.67;98836.38;4067067;85;28613;-84
2022/11/24 18:33:29;;;;;;;34.80;17.48;;;;;;;7.84;80.56;98836.97;4111797;84;28565;-84
2022/11/24 18:39:31;;;;;;;29.07;15.78;;;;;;;8.07;80.01;98848.92;4103341;85;28502;-85
2022/11/24 18:45:32;;;;;;;29.00;15.88;;;;;;;8.15;80.01;98846.48;4100647;85;28552;-86
2022/11/24 18:51:34;;;;;;;28.35;15.68;;;;;;;7.94;81.25;98840.48;4179038;83;28798;-86
2022/11/24 18:57:37;;;;;;;25.88;14.20;;;;;;;8.09;81.37;98852.20;4188868;83;28576;-85
2022/11/24 19:03:44;;;;;;;26.17;15.20;;;;;;;7.67;81.23;98858.89;4144393;84;28525;-90
2022/11/24 19:09:46;;;;;;;30.32;16.07;;;;;;;7.97;80.85;98853.45;4180915;83;28530;-91
2022/11/24 19:15:48;;;;;;;26.35;14.60;;;;;;;7.92;81.91;98873.34;4130192;84;28563;-91
2022/11/24 19:21:55;;;;;;;27.60;13.95;;;;;;;8.03;81.35;98873.17;4142790;84;28562;-90
2022/11/24 19:27:56;;;;;;;27.87;15.55;;;;;;;7.86;83.10;98883.06;4136963;85;28555;-91
2022/11/24 19:33:59;;;;;;;26.55;14.33;;;;;;;8.10;82.28;98889.98;4137603;84;28602;-88
2022/11/24 19:40:01;;;;;;;25.37;13.93;;;;;;;7.97;82.89;98885.57;4064992;85;28496;-83
2022/11/24 19:46:07;;;;;;;26.60;13.58;;;;;;;7.90;83.34;98895.50;4122220;85;28551;-88
2022/11/24 19:52:09;;;;;;;;;;;;;;;7.98;82.50;98904.61;4161175;84;28528;-88
2022/11/24 19:58:14;;;;;;;27.95;14.40;;;;;;;7.99;82.69;98906.75;4077453;85;20622;-92
2022/11/24 20:04:16;;;;;;;30.77;15.70;;;;;;;8.06;81.73;98910.21;4150815;84;28568;-92
2022/11/24 20:10:17;;;;;;;29.37;15.60;;;;;;;8.05;82.31;98912.59;4155158;85;28525;-91
2022/11/24 20:16:29;;;;;;;29.12;15.85;;;;;;;8.32;79.86;98923.91;4082143;85;28511;-89
2022/11/24 20:22:30;;;;;;;30.02;16.55;;;;;;;8.50;79.09;98923.66;4174184;83;28560;-90
2022/11/24 20:28:38;;;;;;;30.25;16.62;;;;;;;8.36;79.76;98933.67;4139614;85;28542;-91
2022/11/24 20:34:37;;;;;;;35.00;18.30;;;;;;;8.40;79.65;98939.41;4108338;85;28523;-88
2022/11/24 20:40:38;;;;;;;30.30;16.55;;;;;;;8.50;78.73;98955.81;4103125;85;28503;-89
2022/11/24 20:46:41;;;;;;;30.40;16.37;;;;;;;8.51;77.71;98957.48;4104710;86;28557;-90
2022/11/24 20:52:47;;;;;;;30.55;16.85;;;;;;;8.23;79.55;98956.85;4089354;85;28536;-86
2022/11/24 20:58:49;;;;;;;31.60;17.45;;;;;;;8.42;79.91;98964.13;4107135;85;28549;-86
2022/11/24 21:04:52;;;;;;;29.87;16.52;;;;;;;8.38;78.89;98970.43;4106972;86;28525;-81
2022/11/24 21:10:56;;;;;;;29.67;16.50;;;;;;;8.20;80.02;98978.69;4110218;85;28607;-85
2022/11/24 21:17:00;;;;;;;27.70;15.70;;;;;;;8.29;80.49;98981.11;4106070;85;28496;-86
2022/11/24 21:23:03;;;;;;;27.25;15.45;;;;;;;8.06;80.86;98983.31;4106455;85;28588;-85
2022/11/24 21:29:06;;;;;;;30.68;16.30;;;;;;;7.98;82.12;98987.61;4121197;84;28584;-85
2022/11/24 21:35:09;;;;;;;30.70;15.75;;;;;;;8.05;81.83;98989.70;4164318;85;28532;-85
2022/11/24 21:41:12;;;;;;;30.20;16.25;;;;;;;8.13;81.45;99002.04;4081197;86;28496;-91
2022/11/24 21:47:16;;;;;;;26.68;15.00;;;;;;;8.22;81.49;98998.58;4154186;83;28532;-82
2022/11/24 21:53:19;;;;;;;30.30;16.40;;;;;;;8.17;83.40;99009.93;4126122;84;28573;-87
2022/11/24 21:59:22;;;;;;;30.88;16.70;;;;;;;8.31;80.49;99012.01;4114675;85;28542;-86
2022/11/24 22:05:24;;;;;;;30.80;16.45;;;;;;;8.34;81.28;99022.28;4117243;83;28563;-81
2022/11/24 22:11:28;;;;;;;32.93;17.82;;;;;;;8.42;80.04;99017.70;4105354;84;28547;-82
2022/11/24 22:17:30;;;;;;;32.70;17.55;;;;;;;8.20;81.37;99022.08;4117374;84;28554;-84
2022/11/24 22:23:33;;;;;;;37.00;18.05;;;;;;;8.31;80.69;99015.19;4091730;84;28476;-84
2022/11/24 22:29:37;;;;;;;36.70;19.85;;;;;;;8.31;80.34;99025.91;4139012;84;28581;-82
2022/11/24 22:35:39;;;;;;;37.95;19.52;;;;;;;8.26;80.82;99036.46;4121834;84;28540;-85
2022/11/24 22:41:40;;;;;;;40.43;21.23;;;;;;;8.12;81.18;99036.52;4136025;84;28534;-84
2022/11/24 22:47:41;;;;;;;40.23;21.95;;;;;;;8.25;80.67;99040.98;4132536;84;28605;-84
2022/11/24 22:53:52;;;;;;;48.20;24.23;;;;;;;8.18;80.67;99049.60;4134497;84;28498;-82
2022/11/24 22:59:53;;;;;;;46.60;23.98;;;;;;;8.34;79.39;99048.27;4123262;84;28554;-81
2022/11/24 23:06:01;;;;;;;51.25;25.62;;;;;;;8.29;79.18;99047.58;4126316;84;28506;-84
2022/11/24 23:12:02;;;;;;;53.58;26.27;;;;;;;8.00;80.60;99054.31;4129826;84;28579;-84
2022/11/24 23:18:03;;;;;;;56.83;26.82;;;;;;;8.13;80.48;99060.95;4135515;83;28480;-83
2022/11/24 23:24:07;;;;;;;63.65;29.35;;;;;;;8.20;80.37;99064.93;4117917;84;28481;-84
2022/11/24 23:30:09;;;;;;;68.28;29.87;;;;;;;8.27;79.86;99065.69;4106239;84;28513;-85
2022/11/24 23:36:19;;;;;;;68.92;30.10;;;;;;;8.21;80.68;99062.55;4093873;85;28473;-85
2022/11/24 23:42:20;;;;;;;66.07;30.32;;;;;;;8.26;80.33;99050.66;4059689;85;28566;-85
2022/11/24 23:48:21;;;;;;;69.15;29.98;;;;;;;8.13;81.17;99057.44;4089349;85;28521;-85
2022/11/24 23:54:23;;;;;;;72.22;31.48;;;;;;;8.22;80.24;99060.17;4111150;85;28497;-84
